createdAt,value
2019-04-26T00:02:19.470Z,100465.53
2019-04-26T00:04:52.837Z,100468.14
2019-04-26T00:07:26.059Z,100469.20
2019-04-26T00:10:00.655Z,100464.02
2019-04-26T00:12:39.305Z,100467.71
2019-04-26T00:15:29.900Z,100466.63
2019-04-26T00:18:04.691Z,100469.47
2019-04-26T00:20:37.500Z,100467.13
2019-04-26T00:23:10.769Z,100457.73
2019-04-26T00:25:44.327Z,100456.06
2019-04-26T00:28:17.175Z,100457.00
2019-04-26T00:30:49.936Z,100453.63
2019-04-26T00:33:22.796Z,100454.13
2019-04-26T00:35:55.660Z,100446.88
2019-04-26T00:38:28.360Z,100441.11
2019-04-26T00:41:01.627Z,100443.98
2019-04-26T00:43:34.315Z,100437.58
2019-04-26T00:46:08.515Z,100436.65
2019-04-26T00:48:42.305Z,100437.11
2019-04-26T00:51:17.299Z,100440.84
2019-04-26T00:53:51.495Z,100432.48
2019-04-26T00:56:25.390Z,100425.19
2019-04-26T00:58:58.245Z,100421.49
2019-04-26T01:01:32.720Z,100418.86
2019-04-26T01:04:05.656Z,100416.69
2019-04-26T01:06:40.033Z,100420.88
2019-04-26T01:09:12.750Z,100422.90
2019-04-26T01:11:45.815Z,100419.38
2019-04-26T01:14:18.464Z,100412.48
2019-04-26T01:16:51.270Z,100409.62
2019-04-26T01:19:25.295Z,100417.41
2019-04-26T01:22:05.038Z,100415.23
2019-04-26T01:24:39.410Z,100413.10
2019-04-26T01:27:15.890Z,100398.86
2019-04-26T01:29:51.015Z,100399.30
2019-04-26T01:32:24.136Z,100397.09
2019-04-26T01:34:58.176Z,100397.91
2019-04-26T01:37:32.330Z,100392.61
2019-04-26T01:40:09.265Z,100388.38
2019-04-26T01:42:49.281Z,100385.86
2019-04-26T01:45:35.215Z,100386.45
2019-04-26T01:48:32.882Z,100386.67
2019-04-26T01:51:05.690Z,100381.25
2019-04-26T01:53:38.891Z,100384.70
2019-04-26T01:56:11.725Z,100386.33
2019-04-26T01:58:46.829Z,100374.70
2019-04-26T02:01:33.071Z,100378.19
2019-04-26T02:04:05.850Z,100374.90
2019-04-26T02:06:38.461Z,100370.20
2019-04-26T02:09:11.874Z,100368.19
2019-04-26T02:11:45.085Z,100369.00
2019-04-26T02:14:17.845Z,100368.53
2019-04-26T02:16:50.795Z,100363.38
2019-04-26T02:19:24.740Z,100366.22
2019-04-26T02:22:05.985Z,100357.69
2019-04-26T02:24:40.336Z,100361.98
2019-04-26T02:27:17.619Z,100363.14
2019-04-26T02:29:50.725Z,100360.66
2019-04-26T02:32:25.282Z,100355.84
2019-04-26T02:34:58.625Z,100350.77
2019-04-26T02:37:34.031Z,100346.03
2019-04-26T02:40:11.044Z,100344.04
2019-04-26T02:42:45.072Z,100342.40
2019-04-26T02:45:32.736Z,100339.80
2019-04-26T02:48:22.253Z,100343.58
2019-04-26T02:51:23.920Z,100344.48
2019-04-26T02:54:07.261Z,100343.97
2019-04-26T02:56:45.357Z,100342.56
2019-04-26T02:59:38.735Z,100343.25
2019-04-26T03:02:16.449Z,100340.27
2019-04-26T03:04:53.942Z,100335.92
2019-04-26T03:07:32.096Z,100339.69
2019-04-26T03:10:06.847Z,100337.41
2019-04-26T03:12:43.201Z,100339.58
2019-04-26T03:15:27.121Z,100339.30
2019-04-26T03:18:24.952Z,100339.52
2019-04-26T03:21:23.651Z,100335.41
2019-04-26T03:24:16.801Z,100332.25
2019-04-26T03:27:35.232Z,100337.52
2019-04-26T03:30:22.804Z,100335.45
2019-04-26T03:33:09.219Z,100333.40
2019-04-26T03:36:18.642Z,100331.55
2019-04-26T03:39:11.077Z,100335.69
2019-04-26T03:42:23.550Z,100335.12
2019-04-26T03:45:44.696Z,100334.27
2019-04-26T03:48:52.341Z,100329.67
2019-04-26T03:51:47.491Z,100334.60
2019-04-26T03:54:29.621Z,100332.94
2019-04-26T03:57:24.890Z,100331.63
2019-04-26T04:00:20.104Z,100329.90
2019-04-26T04:03:16.436Z,100325.42
2019-04-26T04:05:54.150Z,100332.46
2019-04-26T04:08:40.778Z,100331.38
2019-04-26T04:11:21.565Z,100328.75
2019-04-26T04:14:07.156Z,100329.33
2019-04-26T04:16:57.887Z,100332.20
2019-04-26T04:20:13.697Z,100332.70
2019-04-26T04:22:57.400Z,100333.81
2019-04-26T04:25:39.277Z,100328.77
2019-04-26T04:28:35.537Z,100330.56
2019-04-26T04:31:34.169Z,100330.15
2019-04-26T04:34:11.710Z,100327.70
2019-04-26T04:36:51.424Z,100326.48
2019-04-26T04:39:40.860Z,100325.86
2019-04-26T04:43:02.241Z,100327.16
2019-04-26T04:46:20.966Z,100329.63
2019-04-26T04:49:14.673Z,100330.16
2019-04-26T04:52:12.990Z,100325.64
2019-04-26T04:55:06.682Z,100331.51
2019-04-26T04:57:53.153Z,100327.02
2019-04-26T05:01:15.605Z,100331.19
2019-04-26T05:04:24.155Z,100326.09
2019-04-26T05:07:08.160Z,100323.20
2019-04-26T05:10:15.215Z,100323.56
2019-04-26T05:13:16.574Z,100324.87
2019-04-26T05:16:01.535Z,100322.92
2019-04-26T05:19:08.508Z,100320.91
2019-04-26T05:21:57.785Z,100319.39
2019-04-26T05:25:09.385Z,100309.39
2019-04-26T05:28:15.240Z,100308.90
2019-04-26T05:31:08.540Z,100315.97
2019-04-26T05:34:17.875Z,100318.39
2019-04-26T05:37:28.020Z,100323.95
2019-04-26T05:40:10.700Z,100319.09
2019-04-26T05:43:21.620Z,100310.50
2019-04-26T05:46:22.240Z,100308.61
2019-04-26T05:49:24.381Z,100309.53
2019-04-26T05:52:28.549Z,100304.22
2019-04-26T05:55:52.310Z,100308.83
2019-04-26T05:58:47.630Z,100306.58
2019-04-26T06:01:52.067Z,100319.09
2019-04-26T06:04:53.417Z,100320.27
2019-04-26T06:07:58.526Z,100325.28
2019-04-26T06:10:54.111Z,100325.88
2019-04-26T06:14:04.075Z,100320.81
2019-04-26T06:17:02.046Z,100318.59
2019-04-26T06:19:41.821Z,100320.89
2019-04-26T06:22:43.181Z,100321.48
2019-04-26T06:25:27.772Z,100320.20
2019-04-26T06:28:35.955Z,100317.91
2019-04-26T06:31:29.870Z,100318.56
2019-04-26T06:34:09.876Z,100312.36
2019-04-26T06:37:10.960Z,100310.36
2019-04-26T06:40:14.666Z,100311.80
2019-04-26T06:43:12.745Z,100314.48
2019-04-26T06:46:12.152Z,100312.59
2019-04-26T06:49:12.575Z,100307.99
2019-04-26T06:52:05.059Z,100299.11
2019-04-26T06:55:04.266Z,100293.27
2019-04-26T06:58:20.635Z,100284.35
2019-04-26T07:01:09.495Z,100287.87
2019-04-26T07:04:17.095Z,100276.78
2019-04-26T07:07:13.325Z,100282.09
2019-04-26T07:10:04.068Z,100272.94
2019-04-26T07:12:54.436Z,100271.88
2019-04-26T07:16:17.964Z,100278.42
2019-04-26T07:18:51.446Z,100273.25
2019-04-26T07:22:34.547Z,100274.19
2019-04-26T07:25:56.921Z,100272.16
2019-04-26T07:29:07.415Z,100263.80
2019-04-26T07:31:53.625Z,100261.95
2019-04-26T07:34:56.890Z,100264.78
2019-04-26T07:38:14.090Z,100261.11
2019-04-26T07:41:17.150Z,100263.09
2019-04-26T07:44:20.215Z,100258.55
2019-04-26T07:47:21.017Z,100256.70
2019-04-26T07:50:25.135Z,100249.17
2019-04-26T07:53:35.667Z,100248.33
2019-04-26T07:56:36.355Z,100241.38
2019-04-26T07:59:42.535Z,100241.95
2019-04-26T08:02:32.235Z,100241.29
2019-04-26T08:05:35.875Z,100239.22
2019-04-26T08:08:11.419Z,100236.28
2019-04-26T08:10:59.675Z,100231.73
2019-04-26T08:13:34.835Z,100226.52
2019-04-26T08:16:14.695Z,100228.73
2019-04-26T08:18:53.724Z,100229.64
2019-04-26T08:21:31.928Z,100219.59
2019-04-26T08:24:08.295Z,100221.03
2019-04-26T08:26:44.155Z,100211.06
2019-04-26T08:29:20.036Z,100201.94
2019-04-26T08:31:57.822Z,100201.84
2019-04-26T08:34:33.842Z,100195.90
2019-04-26T08:37:10.479Z,100194.55
2019-04-26T08:39:49.447Z,100188.73
2019-04-26T08:42:24.649Z,100190.38
2019-04-26T08:45:04.704Z,100184.98
2019-04-26T08:47:40.515Z,100192.06
2019-04-26T08:50:33.230Z,100178.61
2019-04-26T08:53:09.015Z,100189.25
2019-04-26T08:55:43.496Z,100189.22
2019-04-26T08:58:18.676Z,100179.87
2019-04-26T09:01:01.215Z,100187.67
2019-04-26T09:03:41.956Z,100176.86
2019-04-26T09:06:20.895Z,100178.37
2019-04-26T09:08:58.005Z,100175.39
2019-04-26T09:11:33.972Z,100173.75
2019-04-26T09:17:04.779Z,100172.61
2019-04-26T09:19:37.215Z,100182.98
2019-04-26T09:22:14.416Z,100175.55
2019-04-26T09:24:49.316Z,100174.27
2019-04-26T09:27:27.195Z,100174.50
2019-04-26T09:30:11.210Z,100163.70
2019-04-26T09:32:47.817Z,100161.67
2019-04-26T09:35:24.240Z,100170.73
2019-04-26T09:37:58.135Z,100163.61
2019-04-26T09:40:30.935Z,100165.16
2019-04-26T09:43:22.196Z,100165.48
2019-04-26T09:45:56.275Z,100159.73
2019-04-26T09:48:32.715Z,100159.98
2019-04-26T09:51:07.555Z,100161.34
2019-04-26T09:53:43.370Z,100164.55
2019-04-26T09:56:14.460Z,100159.22
2019-04-26T09:58:46.860Z,100154.48
2019-04-26T10:01:24.027Z,100153.98
2019-04-26T10:03:55.770Z,100153.23
2019-04-26T10:06:30.762Z,100149.34
2019-04-26T10:09:03.700Z,100146.05
2019-04-26T10:11:39.538Z,100143.71
2019-04-26T10:14:16.501Z,100138.87
2019-04-26T10:17:01.060Z,100139.58
2019-04-26T10:19:47.283Z,100132.20
2019-04-26T10:22:19.621Z,100142.28
2019-04-26T10:24:52.181Z,100144.88
2019-04-26T10:27:24.800Z,100133.47
2019-04-26T10:30:07.723Z,100126.97
2019-04-26T10:32:32.631Z,100125.97
2019-04-26T10:35:07.270Z,100122.39
2019-04-26T10:37:43.889Z,100122.73
2019-04-26T10:40:16.712Z,100118.41
2019-04-26T10:42:49.170Z,100120.12
2019-04-26T10:45:21.870Z,100113.16
2019-04-26T10:47:54.392Z,100112.19
2019-04-26T10:50:28.808Z,100111.16
2019-04-26T10:53:02.350Z,100102.16
2019-04-26T10:55:41.220Z,100095.27
2019-04-26T10:58:19.374Z,100101.45
2019-04-26T11:00:54.139Z,100104.34
2019-04-26T11:03:28.050Z,100096.42
2019-04-26T11:06:01.150Z,100097.67
2019-04-26T11:08:33.591Z,100096.69
2019-04-26T11:11:08.612Z,100091.64
2019-04-26T11:13:41.110Z,100092.13
2019-04-26T11:16:16.650Z,100089.31
2019-04-26T11:18:49.090Z,100095.80
2019-04-26T11:21:22.456Z,100085.16
2019-04-26T11:23:54.790Z,100083.58
2019-04-26T11:26:27.190Z,100074.36
2019-04-26T11:28:59.470Z,100071.73
2019-04-26T11:31:31.870Z,100078.23
2019-04-26T11:34:05.415Z,100056.53
2019-04-26T11:36:41.856Z,100074.55
2019-04-26T11:39:13.920Z,100065.34
2019-04-26T11:41:46.509Z,100073.50
2019-04-26T11:44:27.458Z,100074.77
2019-04-26T11:46:59.394Z,100070.74
2019-04-26T11:49:33.350Z,100074.71
2019-04-26T11:52:07.230Z,100066.98
2019-04-26T11:54:39.530Z,100062.76
2019-04-26T11:57:14.650Z,100062.59
2019-04-26T11:59:47.250Z,100061.24
2019-04-26T12:02:19.810Z,100064.07
2019-04-26T12:05:06.113Z,100060.70
2019-04-26T12:07:40.210Z,100050.45
2019-04-26T12:10:13.611Z,100057.31
2019-04-26T12:12:47.102Z,100057.53
2019-04-26T12:15:30.202Z,100052.44
2019-04-26T12:17:58.869Z,100045.38
2019-04-26T12:20:31.410Z,100044.80
2019-04-26T12:23:03.880Z,100038.70
2019-04-26T12:25:38.852Z,100038.24
2019-04-26T12:28:11.462Z,100047.95
2019-04-26T12:30:45.031Z,100048.19
2019-04-26T12:33:18.493Z,100040.70
2019-04-26T12:35:56.883Z,100035.05
2019-04-26T12:38:28.490Z,100035.88
2019-04-26T12:41:00.131Z,100034.17
2019-04-26T12:43:32.450Z,100025.82
2019-04-26T12:46:22.721Z,100035.32
2019-04-26T12:48:56.090Z,100038.44
2019-04-26T12:51:28.750Z,100026.43
2019-04-26T12:54:03.861Z,100027.19
2019-04-26T12:56:37.460Z,100026.13
2019-04-26T12:59:09.710Z,100025.13
2019-04-26T13:01:42.593Z,100025.45
2019-04-26T13:04:16.530Z,100012.91
2019-04-26T13:07:02.321Z,100015.69
2019-04-26T13:09:36.331Z,100012.59
2019-04-26T13:12:11.490Z,100005.19
2019-04-26T13:14:44.400Z,100008.36
2019-04-26T13:17:21.190Z,100006.75
2019-04-26T13:19:55.310Z,99998.99
2019-04-26T13:22:27.910Z,100004.06
2019-04-26T13:25:00.112Z,100008.67
2019-04-26T13:27:32.590Z,100011.75
2019-04-26T13:30:10.155Z,100008.59
2019-04-26T13:32:40.714Z,100003.09
2019-04-26T13:35:13.312Z,99997.48
2019-04-26T13:37:45.990Z,99996.28
2019-04-26T13:40:18.330Z,99991.37
2019-04-26T13:42:51.364Z,99990.09
2019-04-26T13:45:25.614Z,99990.05
2019-04-26T13:48:15.610Z,99988.14
2019-04-26T13:51:01.393Z,99987.50
2019-04-26T13:53:32.870Z,99980.47
2019-04-26T13:56:05.375Z,99979.29
2019-04-26T13:58:37.673Z,99979.77
2019-04-26T14:01:14.567Z,99973.88
2019-04-26T14:03:45.410Z,99974.68
2019-04-26T14:06:18.090Z,99978.25
2019-04-26T14:08:54.017Z,99976.73
2019-04-26T14:11:28.131Z,99970.08
2019-04-26T14:14:01.674Z,99967.30
2019-04-26T14:16:34.171Z,99976.59
2019-04-26T14:19:14.641Z,99964.05
2019-04-26T14:21:41.930Z,99968.81
2019-04-26T14:24:19.766Z,99968.42
2019-04-26T14:26:54.371Z,99965.86
2019-04-26T14:29:28.438Z,99977.03
2019-04-26T14:32:01.970Z,99972.59
2019-04-26T14:34:36.213Z,99964.86
2019-04-26T14:37:11.184Z,99962.95
2019-04-26T14:39:50.115Z,99959.36
2019-04-26T14:42:16.811Z,99961.92
2019-04-26T14:44:49.940Z,99957.98
2019-04-26T14:47:22.430Z,99957.53
2019-04-26T14:49:57.780Z,99960.56
2019-04-26T14:52:29.107Z,99963.00
2019-04-26T14:55:01.545Z,99954.86
2019-04-26T14:57:34.290Z,99956.68
2019-04-26T15:00:09.350Z,99955.03
2019-04-26T15:02:59.370Z,99945.55
2019-04-26T15:05:38.183Z,99946.60
2019-04-26T15:08:11.704Z,99946.34
2019-04-26T15:10:48.839Z,99945.39
2019-04-26T15:13:20.993Z,99943.91
2019-04-26T15:15:53.890Z,99951.06
2019-04-26T15:18:29.280Z,99952.91
2019-04-26T15:21:00.550Z,99947.27
2019-04-26T15:23:33.349Z,99950.20
2019-04-26T15:26:06.245Z,99942.47
2019-04-26T15:28:39.320Z,99949.52
2019-04-26T15:31:13.084Z,99949.83
2019-04-26T15:33:48.677Z,99943.30
2019-04-26T15:36:20.260Z,99943.50
2019-04-26T15:38:53.050Z,99944.10
2019-04-26T15:41:30.310Z,99941.34
2019-04-26T15:44:05.810Z,99939.17
2019-04-26T15:46:44.125Z,99933.63
2019-04-26T15:49:29.150Z,99937.05
2019-04-26T15:52:01.621Z,99928.27
2019-04-26T15:54:34.620Z,99930.41
2019-04-26T15:57:07.388Z,99923.13
2019-04-26T15:59:40.040Z,99923.93
2019-04-26T16:02:12.860Z,99921.83
2019-04-26T16:04:47.451Z,99922.47
2019-04-26T16:07:27.410Z,99913.32
2019-04-26T16:09:57.323Z,99917.80
2019-04-26T16:12:28.975Z,99914.20
2019-04-26T16:15:06.401Z,99912.36
2019-04-26T16:17:40.150Z,99913.41
2019-04-26T16:20:13.637Z,99915.47
2019-04-26T16:22:49.016Z,99919.69
2019-04-26T16:25:20.895Z,99920.36
2019-04-26T16:28:12.636Z,99918.74
2019-04-26T16:31:02.373Z,99919.95
2019-04-26T16:33:36.950Z,99913.74
2019-04-26T16:36:09.451Z,99911.90
2019-04-26T16:38:42.365Z,99908.70
2019-04-26T16:41:15.305Z,99908.38
2019-04-26T16:43:53.038Z,99919.29
2019-04-26T16:46:24.604Z,99912.88
2019-04-26T16:49:02.296Z,99919.13
2019-04-26T16:51:33.998Z,99919.38
2019-04-26T16:54:10.226Z,99915.83
2019-04-26T16:56:43.692Z,99912.66
2019-04-26T16:59:22.671Z,99912.04
2019-04-26T17:01:49.295Z,99911.05
2019-04-26T17:04:29.072Z,99909.81
2019-04-26T17:07:01.732Z,99912.94
2019-04-26T17:09:52.270Z,99913.14
2019-04-26T17:12:06.064Z,99914.41
2019-04-26T17:14:40.675Z,99910.75
2019-04-26T17:17:14.226Z,99910.03
2019-04-26T17:19:47.050Z,99906.11
2019-04-26T17:22:25.685Z,99908.38
2019-04-26T17:25:03.042Z,99908.98
2019-04-26T17:27:35.670Z,99907.20
2019-04-26T17:30:10.669Z,99914.50
2019-04-26T17:32:43.792Z,99910.86
2019-04-26T17:35:16.690Z,99919.84
2019-04-26T17:37:50.231Z,99918.17
2019-04-26T17:40:25.200Z,99914.81
2019-04-26T17:42:57.284Z,99920.85
2019-04-26T17:45:30.637Z,99923.02
2019-04-26T17:48:06.654Z,99917.66
2019-04-26T17:50:38.981Z,99922.14
2019-04-26T17:53:20.299Z,99923.41
2019-04-26T17:55:52.928Z,99930.40
2019-04-26T17:58:27.763Z,99923.95
2019-04-26T18:00:56.410Z,99930.28
2019-04-26T18:03:29.494Z,99925.39
2019-04-26T18:06:02.140Z,99925.06
2019-04-26T18:08:41.090Z,99930.23
2019-04-26T18:11:18.872Z,99926.48
2019-04-26T18:13:47.165Z,99919.25
2019-04-26T18:16:22.408Z,99917.20
2019-04-26T18:18:54.405Z,99920.88
2019-04-26T18:21:29.154Z,99923.20
2019-04-26T18:24:03.156Z,99926.86
2019-04-26T18:26:35.930Z,99936.41
2019-04-26T18:29:08.585Z,99929.30
2019-04-26T18:31:41.306Z,99930.61
2019-04-26T18:34:14.050Z,99928.39
2019-04-26T18:36:46.871Z,99927.47
2019-04-26T18:39:22.772Z,99928.11
2019-04-26T18:41:58.269Z,99926.71
2019-04-26T18:44:36.979Z,99927.46
2019-04-26T18:47:25.660Z,99934.70
2019-04-26T18:49:58.110Z,99937.63
2019-04-26T18:52:32.965Z,99933.48
2019-04-26T18:55:16.353Z,99934.53
2019-04-26T18:57:55.167Z,99935.77
2019-04-26T19:00:29.515Z,99930.77
2019-04-26T19:03:02.491Z,99935.67
2019-04-26T19:05:35.402Z,99936.24
2019-04-26T19:08:09.968Z,99928.76
2019-04-26T19:10:43.521Z,99933.31
2019-04-26T19:13:32.113Z,99931.83
2019-04-26T19:16:03.656Z,99929.19
2019-04-26T19:18:42.433Z,99930.06
2019-04-26T19:21:18.350Z,99928.27
2019-04-26T19:23:51.897Z,99930.13
2019-04-26T19:26:33.050Z,99924.50
2019-04-26T19:28:59.925Z,99930.70
2019-04-26T19:31:32.900Z,99931.92
2019-04-26T19:34:05.564Z,99931.62
2019-04-26T19:36:38.480Z,99926.78
2019-04-26T19:39:12.086Z,99924.11
2019-04-26T19:41:46.395Z,99920.61
2019-04-26T19:44:22.142Z,99919.30
2019-04-26T19:46:58.047Z,99922.29
2019-04-26T19:49:41.535Z,99919.48
2019-04-26T19:52:33.671Z,99917.64
2019-04-26T19:55:24.788Z,99915.31
2019-04-26T19:57:57.285Z,99912.64
2019-04-26T20:00:32.031Z,99907.97
2019-04-26T20:03:08.378Z,99905.98
2019-04-26T20:05:40.643Z,99908.97
2019-04-26T20:08:13.714Z,99903.30
2019-04-26T20:10:46.292Z,99903.92
2019-04-26T20:13:18.989Z,99893.59
2019-04-26T20:15:53.115Z,99894.08
2019-04-26T20:18:27.164Z,99893.91
2019-04-26T20:21:00.020Z,99889.05
2019-04-26T20:23:33.819Z,99896.03
2019-04-26T20:26:07.308Z,99890.54
2019-04-26T20:28:42.296Z,99891.02
2019-04-26T20:31:16.820Z,99888.98
2019-04-26T20:33:49.666Z,99887.15
2019-04-26T20:36:22.235Z,99889.14
2019-04-26T20:38:55.170Z,99886.81
2019-04-26T20:41:27.989Z,99881.28
2019-04-26T20:44:07.354Z,99884.93
2019-04-26T20:46:37.750Z,99885.27
2019-04-26T20:49:09.302Z,99882.06
2019-04-26T20:51:46.108Z,99882.73
2019-04-26T20:54:17.441Z,99884.66
2019-04-26T20:56:52.634Z,99876.81
2019-04-26T20:59:24.491Z,99873.29
2019-04-26T21:02:03.949Z,99870.93
2019-04-26T21:04:37.946Z,99873.22
2019-04-26T21:07:06.654Z,99870.86
2019-04-26T21:09:42.602Z,99875.30
2019-04-26T21:12:17.644Z,99869.30
2019-04-26T21:14:48.965Z,99870.45
2019-04-26T21:17:25.973Z,99870.77
2019-04-26T21:19:58.546Z,99868.08
2019-04-26T21:22:31.721Z,99867.56
2019-04-26T21:25:11.689Z,99867.70
2019-04-26T21:27:51.920Z,99862.67
2019-04-26T21:30:33.580Z,99861.14
2019-04-26T21:33:17.310Z,99864.94
2019-04-26T21:35:50.830Z,99858.30
2019-04-26T21:38:41.325Z,99858.94
2019-04-26T21:41:15.647Z,99862.73
2019-04-26T21:43:48.250Z,99853.88
2019-04-26T21:46:22.865Z,99866.20
2019-04-26T21:48:55.562Z,99873.81
2019-04-26T21:51:28.221Z,99900.75
2019-04-26T21:54:01.034Z,99888.38
2019-04-26T21:56:34.090Z,99872.98
2019-04-26T21:59:06.905Z,99881.70
2019-04-26T22:01:39.860Z,99875.25
2019-04-26T22:04:13.800Z,99873.66
2019-04-26T22:06:47.875Z,99881.66
2019-04-26T22:09:34.962Z,99880.19
2019-04-26T22:12:05.530Z,99879.92
2019-04-26T22:14:43.996Z,99873.63
2019-04-26T22:17:18.905Z,99878.97
2019-04-26T22:19:53.478Z,99878.29
2019-04-26T22:22:27.907Z,99873.76
2019-04-26T22:25:05.468Z,99868.74
2019-04-26T22:27:38.230Z,99866.02
2019-04-26T22:30:13.302Z,99866.62
2019-04-26T22:32:48.513Z,99857.77
2019-04-26T22:35:21.670Z,99854.69
2019-04-26T22:37:54.420Z,99862.24
2019-04-26T22:40:27.130Z,99889.44
2019-04-26T22:43:20.170Z,99914.80
2019-04-26T22:45:56.550Z,99910.86
2019-04-26T22:48:36.397Z,99932.28
2019-04-26T22:51:09.010Z,99920.08
2019-04-26T22:53:43.301Z,99936.88
2019-04-26T22:56:16.161Z,99931.95
2019-04-26T22:58:49.260Z,99924.14
2019-04-26T23:01:21.932Z,99923.17
2019-04-26T23:03:54.916Z,99924.22
2019-04-26T23:06:27.970Z,99926.95
2019-04-26T23:09:01.290Z,99924.45
2019-04-26T23:11:35.405Z,99918.64
2019-04-26T23:14:19.149Z,99928.63
2019-04-26T23:17:09.639Z,99928.80
2019-04-26T23:19:54.194Z,99925.94
2019-04-26T23:22:30.775Z,99926.27
2019-04-26T23:24:58.845Z,99933.56
2019-04-26T23:27:33.255Z,99939.53
2019-04-26T23:30:07.380Z,99936.67
2019-04-26T23:32:39.855Z,99947.95
2019-04-26T23:35:13.724Z,99946.74
2019-04-26T23:37:46.240Z,99949.36
2019-04-26T23:40:20.694Z,99959.15
2019-04-26T23:42:54.377Z,99954.28
2019-04-26T23:45:27.305Z,99962.21
2019-04-26T23:48:00.040Z,99970.66
2019-04-26T23:50:34.093Z,99986.72
2019-04-26T23:53:06.775Z,99994.77
2019-04-26T23:55:42.493Z,100000.88
2019-04-26T23:58:13.955Z,99993.78
